Time;durP1;ratioP1;P1;durP2;ratioP2;P2;SDS_P1;SDS_P2;PMS_P1;PMS_P2;Temp;Humidity;BMP_temperature;BMP_pressure;BME280_temperature;BME280_humidity;BME280_pressure;Samples;Min_cycle;Max_cycle;Signal;HPM_P1;HPM_P2
2024/01/15 00:01:48;;;;;;;15.23;0.68;;;1.90;99.90;;;;;;5069755;28;20048;-66
2024/01/15 00:04:13;;;;;;;0.20;0.20;;;1.90;99.90;;;;;;5061153;28;20044;-67
2024/01/15 00:06:39;;;;;;;0.10;0.10;;;1.90;99.90;;;;;;5066847;28;20041;-66
2024/01/15 00:09:06;;;;;;;0.05;0.05;;;1.90;99.90;;;;;;5087999;28;20167;-66
2024/01/15 00:11:32;;;;;;;0.10;0.10;;;1.90;99.90;;;;;;5065217;28;20089;-66
2024/01/15 00:13:58;;;;;;;2.72;0.57;;;2.00;99.90;;;;;;5063483;28;20033;-66
2024/01/15 00:16:23;;;;;;;0.10;0.10;;;2.00;99.90;;;;;;5065011;28;20123;-67
2024/01/15 00:18:49;;;;;;;0.20;0.20;;;2.00;99.90;;;;;;5063088;28;20741;-66
2024/01/15 00:21:15;;;;;;;0.10;0.10;;;2.00;99.90;;;;;;5080308;28;20063;-66
2024/01/15 00:23:47;;;;;;;0.17;0.17;;;1.90;99.90;;;;;;5061275;28;20442;-66
2024/01/15 00:26:13;;;;;;;0.10;0.10;;;1.90;99.90;;;;;;5060125;28;20097;-66
2024/01/15 00:28:38;;;;;;;0.10;0.10;;;1.80;99.90;;;;;;5054736;28;20036;-66
2024/01/15 00:31:05;;;;;;;0.40;0.40;;;1.70;99.90;;;;;;5080825;28;20094;-67
2024/01/15 00:33:31;;;;;;;0.10;0.10;;;1.80;99.90;;;;;;5053442;28;20037;-66
2024/01/15 00:35:56;;;;;;;0.00;0.00;;;1.90;99.90;;;;;;5064475;28;20047;-68
2024/01/15 00:38:22;;;;;;;0.77;0.47;;;2.00;99.90;;;;;;5058789;28;20032;-66
2024/01/15 00:40:48;;;;;;;0.10;0.10;;;2.00;99.90;;;;;;5057924;28;20438;-67
2024/01/15 00:43:14;;;;;;;0.20;0.20;;;2.10;99.90;;;;;;5069254;28;20479;-66
2024/01/15 00:45:40;;;;;;;0.10;0.10;;;2.10;99.90;;;;;;5064723;28;20048;-67
2024/01/15 00:48:06;;;;;;;0.10;0.10;;;2.10;99.90;;;;;;5064182;28;20493;-66
2024/01/15 00:50:31;;;;;;;0.10;0.10;;;2.10;99.90;;;;;;5058698;28;20045;-66
2024/01/15 00:53:00;;;;;;;0.10;0.10;;;2.00;99.90;;;;;;5064348;28;20032;-66
2024/01/15 00:55:27;;;;;;;0.38;0.38;;;2.00;99.90;;;;;;5090810;28;20398;-66
2024/01/15 00:57:52;;;;;;;1.13;1.00;;;1.90;99.90;;;;;;5061824;28;20425;-66
2024/01/15 01:00:18;;;;;;;0.10;0.10;;;1.90;99.90;;;;;;5058463;28;20040;-66
2024/01/15 01:02:43;;;;;;;0.25;0.25;;;2.00;99.90;;;;;;5061924;28;20047;-66
2024/01/15 01:05:09;;;;;;;0.10;0.10;;;2.00;99.90;;;;;;5057374;28;20452;-66
2024/01/15 01:07:34;;;;;;;0.10;0.10;;;2.00;99.90;;;;;;5066903;28;20040;-66
2024/01/15 01:10:00;;;;;;;0.10;0.10;;;2.00;99.90;;;;;;5061282;28;20090;-66
2024/01/15 01:12:25;;;;;;;0.03;0.03;;;2.00;99.90;;;;;;5062810;28;20048;-66
2024/01/15 01:14:51;;;;;;;0.28;0.28;;;2.00;99.90;;;;;;5061627;28;20036;-66
2024/01/15 01:17:16;;;;;;;0.95;0.32;;;2.00;99.90;;;;;;5062318;28;20064;-67
2024/01/15 01:19:42;;;;;;;0.32;0.20;;;1.90;99.90;;;;;;5060581;28;20539;-66
2024/01/15 01:22:08;;;;;;;0.13;0.13;;;1.90;99.90;;;;;;5090585;28;20143;-67
2024/01/15 01:24:34;;;;;;;0.52;0.52;;;2.00;99.90;;;;;;5062033;28;20075;-67
2024/01/15 01:26:59;;;;;;;0.10;0.10;;;2.00;99.90;;;;;;5060811;28;20072;-66
2024/01/15 01:29:26;;;;;;;0.70;0.30;;;2.10;99.90;;;;;;5054987;28;20169;-69
2024/01/15 01:31:52;;;;;;;0.10;0.10;;;2.20;99.90;;;;;;5068320;28;20041;-69
2024/01/15 01:34:18;;;;;;;0.75;0.75;;;2.30;99.90;;;;;;5065326;28;20490;-68
2024/01/15 01:36:43;;;;;;;0.00;0.00;;;2.40;99.90;;;;;;5093235;28;20041;-69
2024/01/15 01:39:09;;;;;;;1.30;0.63;;;2.40;99.90;;;;;;5069947;28;20028;-71
2024/01/15 01:41:35;;;;;;;2.42;1.67;;;2.50;99.90;;;;;;5068427;28;20754;-67
2024/01/15 01:44:01;;;;;;;1.58;1.52;;;2.60;99.90;;;;;;5060803;28;20271;-69
2024/01/15 01:46:28;;;;;;;0.10;0.10;;;2.60;99.90;;;;;;5066975;28;20039;-69
2024/01/15 01:48:55;;;;;;;0.20;0.20;;;2.40;99.90;;;;;;5073355;28;20479;-69
2024/01/15 01:51:22;;;;;;;0.10;0.10;;;2.30;99.90;;;;;;5063621;28;20231;-69
2024/01/15 01:53:49;;;;;;;0.10;0.10;;;2.30;99.90;;;;;;5068884;28;20040;-71
2024/01/15 01:56:16;;;;;;;0.20;0.20;;;2.30;99.90;;;;;;5062558;28;20043;-70
2024/01/15 01:58:42;;;;;;;0.10;0.10;;;2.20;99.90;;;;;;5067670;28;20055;-69
2024/01/15 02:01:08;;;;;;;3.35;1.35;;;2.30;99.90;;;;;;5064623;28;20097;-70
2024/01/15 02:03:34;;;;;;;0.10;0.10;;;2.20;99.90;;;;;;5071540;28;20534;-72
2024/01/15 02:06:00;;;;;;;0.10;0.10;;;2.20;99.90;;;;;;5067923;28;20033;-70
2024/01/15 02:08:26;;;;;;;2.22;0.40;;;2.20;99.90;;;;;;5071993;28;20495;-71
2024/01/15 02:10:51;;;;;;;0.13;0.13;;;2.20;99.90;;;;;;5068445;28;20044;-69
2024/01/15 02:13:18;;;;;;;0.10;0.10;;;2.20;99.90;;;;;;5060044;28;20064;-69
2024/01/15 02:15:44;;;;;;;1.52;1.42;;;2.20;99.90;;;;;;5065870;28;20138;-70
2024/01/15 02:18:09;;;;;;;0.10;0.10;;;2.20;99.90;;;;;;5083064;28;20068;-68
2024/01/15 02:20:35;;;;;;;0.30;0.30;;;2.20;99.90;;;;;;5059577;28;20036;-68
2024/01/15 02:23:11;;;;;;;0.10;0.10;;;2.20;99.90;;;;;;5071555;28;20556;-68
2024/01/15 02:25:43;;;;;;;0.10;0.10;;;2.30;99.90;;;;;;5067732;28;20047;-69
2024/01/15 02:28:14;;;;;;;0.30;0.30;;;2.10;99.90;;;;;;5070007;28;20491;-68
2024/01/15 02:30:41;;;;;;;0.10;0.10;;;1.90;99.90;;;;;;5062968;28;20423;-74
2024/01/15 02:33:08;;;;;;;0.10;0.10;;;1.90;99.90;;;;;;5066002;28;20174;-72
2024/01/15 02:35:36;;;;;;;0.10;0.10;;;1.80;99.90;;;;;;5064746;28;20077;-72
2024/01/15 02:38:02;;;;;;;0.10;0.10;;;1.80;99.90;;;;;;5067379;28;20170;-72
2024/01/15 02:40:28;;;;;;;0.10;0.10;;;1.70;99.90;;;;;;5066485;28;20044;-71
2024/01/15 02:42:54;;;;;;;1.08;0.63;;;1.70;99.90;;;;;;5066624;28;20036;-71
2024/01/15 02:45:20;;;;;;;0.10;0.10;;;1.70;99.90;;;;;;5064142;28;20044;-71
2024/01/15 02:47:46;;;;;;;0.10;0.10;;;1.70;99.90;;;;;;5070587;28;20403;-71
2024/01/15 02:50:13;;;;;;;0.13;0.13;;;1.70;99.90;;;;;;5065027;28;20046;-70
2024/01/15 02:52:39;;;;;;;0.08;0.08;;;1.70;99.90;;;;;;5066809;28;20041;-71
2024/01/15 02:55:04;;;;;;;0.32;0.25;;;1.70;99.90;;;;;;5052227;28;20063;-72
2024/01/15 02:57:30;;;;;;;0.10;0.10;;;1.70;99.90;;;;;;5066574;28;20036;-70
2024/01/15 02:59:56;;;;;;;0.10;0.10;;;1.70;99.90;;;;;;5064882;28;20033;-72
2024/01/15 03:02:21;;;;;;;0.10;0.10;;;1.70;99.90;;;;;;5065954;28;20064;-71
2024/01/15 03:04:47;;;;;;;0.10;0.10;;;1.70;99.90;;;;;;5058688;28;20123;-71
2024/01/15 03:07:13;;;;;;;0.10;0.10;;;1.80;99.90;;;;;;5067931;28;20136;-71
2024/01/15 03:09:38;;;;;;;0.45;0.17;;;1.80;99.90;;;;;;5062471;28;20036;-71
2024/01/15 03:12:04;;;;;;;0.10;0.10;;;1.90;99.90;;;;;;5066406;28;20063;-72
2024/01/15 03:14:30;;;;;;;0.17;0.17;;;2.00;99.90;;;;;;5093217;28;20025;-74
2024/01/15 03:16:55;;;;;;;0.10;0.10;;;2.10;99.90;;;;;;5065115;28;20045;-71
2024/01/15 03:19:21;;;;;;;13.70;0.88;;;2.10;99.90;;;;;;5069590;28;20047;-71
2024/01/15 03:21:46;;;;;;;4.30;0.38;;;2.00;99.90;;;;;;5069344;28;20115;-73
2024/01/15 03:24:12;;;;;;;0.10;0.10;;;2.00;99.90;;;;;;5064448;28;20527;-69
2024/01/15 03:26:37;;;;;;;0.10;0.10;;;2.00;99.90;;;;;;5065180;28;20055;-71
2024/01/15 03:29:03;;;;;;;0.10;0.10;;;2.00;99.90;;;;;;5065572;28;20285;-72
2024/01/15 03:31:29;;;;;;;0.10;0.10;;;2.10;99.90;;;;;;5069201;28;20050;-72
2024/01/15 03:33:54;;;;;;;6.18;0.50;;;2.10;99.90;;;;;;5067376;28;20047;-70
2024/01/15 03:36:20;;;;;;;0.10;0.10;;;2.10;99.90;;;;;;5062394;28;20048;-73
2024/01/15 03:38:45;;;;;;;0.10;0.10;;;2.10;99.90;;;;;;5067269;28;20067;-72
2024/01/15 03:41:11;;;;;;;0.10;0.10;;;2.10;99.90;;;;;;5065202;28;20071;-72
2024/01/15 03:43:36;;;;;;;0.10;0.10;;;2.10;99.90;;;;;;5070160;28;20066;-73
2024/01/15 03:46:02;;;;;;;0.10;0.10;;;2.10;99.90;;;;;;5065100;28;20471;-72
2024/01/15 03:48:28;;;;;;;1.08;0.43;;;2.10;99.90;;;;;;5069054;28;20399;-71
2024/01/15 03:50:53;;;;;;;0.10;0.10;;;2.10;99.90;;;;;;5069154;28;20039;-73
2024/01/15 03:53:19;;;;;;;0.03;0.03;;;2.20;99.90;;;;;;5064530;28;20040;-70
2024/01/15 03:55:44;;;;;;;0.20;0.20;;;2.20;99.90;;;;;;5091451;28;20403;-72
2024/01/15 03:58:10;;;;;;;0.10;0.10;;;2.10;99.90;;;;;;5065683;28;20071;-71
2024/01/15 04:00:37;;;;;;;0.30;0.17;;;2.20;99.90;;;;;;5061677;28;20048;-71
2024/01/15 04:03:02;;;;;;;0.10;0.10;;;2.20;99.90;;;;;;5061552;28;20049;-70
2024/01/15 04:05:28;;;;;;;0.13;0.13;;;2.20;99.90;;;;;;5063411;28;20509;-71
2024/01/15 04:07:53;;;;;;;0.32;0.17;;;2.10;99.90;;;;;;5067334;28;20040;-72
2024/01/15 04:10:19;;;;;;;0.50;0.50;;;2.10;99.90;;;;;;5060802;28;20127;-72
2024/01/15 04:12:47;;;;;;;0.45;0.45;;;2.00;99.90;;;;;;5061959;28;20036;-71
2024/01/15 04:15:13;;;;;;;0.10;0.10;;;2.00;99.90;;;;;;5066137;28;20410;-71
2024/01/15 04:17:39;;;;;;;0.20;0.20;;;2.10;99.90;;;;;;5062410;28;20036;-71
2024/01/15 04:20:05;;;;;;;0.20;0.20;;;2.00;99.90;;;;;;5049877;28;20475;-72
2024/01/15 04:22:30;;;;;;;0.10;0.10;;;2.00;99.90;;;;;;5064372;28;20127;-73
2024/01/15 04:24:56;;;;;;;0.17;0.17;;;1.90;99.90;;;;;;5065797;28;20130;-71
2024/01/15 04:27:22;;;;;;;0.10;0.10;;;1.90;99.90;;;;;;5066538;28;20040;-72
2024/01/15 04:29:47;;;;;;;0.10;0.10;;;1.90;99.90;;;;;;5065300;28;20079;-72
2024/01/15 04:32:13;;;;;;;0.30;0.30;;;1.90;99.90;;;;;;5060211;28;20459;-73
2024/01/15 04:34:38;;;;;;;0.10;0.10;;;2.00;99.90;;;;;;5064614;28;20032;-69
2024/01/15 04:37:04;;;;;;;0.10;0.10;;;2.00;99.90;;;;;;5064065;28;20045;-70
2024/01/15 04:39:29;;;;;;;0.32;0.32;;;2.00;99.90;;;;;;5062876;28;20072;-71
2024/01/15 04:41:55;;;;;;;8.77;0.38;;;2.00;99.90;;;;;;5067430;28;20087;-71
2024/01/15 04:44:20;;;;;;;0.60;0.55;;;2.00;99.90;;;;;;5061651;28;20095;-72
2024/01/15 04:46:46;;;;;;;0.40;0.17;;;2.00;99.90;;;;;;5046963;28;20044;-73
2024/01/15 04:49:12;;;;;;;0.17;0.17;;;2.00;99.90;;;;;;5066826;28;20498;-72
2024/01/15 04:51:37;;;;;;;0.57;0.55;;;2.00;99.90;;;;;;5063272;28;20037;-72
2024/01/15 04:54:03;;;;;;;0.10;0.10;;;1.80;99.90;;;;;;5066305;28;20524;-70
2024/01/15 04:56:29;;;;;;;0.20;0.20;;;1.70;99.90;;;;;;5066840;28;20052;-75
2024/01/15 04:58:54;;;;;;;0.10;0.10;;;1.60;99.90;;;;;;5065951;28;20403;-69
2024/01/15 05:01:20;;;;;;;0.82;0.80;;;1.60;99.90;;;;;;5065263;28;20467;-70
2024/01/15 05:03:45;;;;;;;0.10;0.10;;;1.50;99.90;;;;;;5067268;28;20055;-73
2024/01/15 05:06:11;;;;;;;0.10;0.10;;;1.50;99.90;;;;;;5063835;28;20045;-74
2024/01/15 05:08:36;;;;;;;0.10;0.10;;;1.40;99.90;;;;;;5068037;28;20032;-74
2024/01/15 05:11:02;;;;;;;0.10;0.10;;;1.30;99.90;;;;;;5094359;28;20146;-73
2024/01/15 05:13:28;;;;;;;0.10;0.10;;;1.30;99.90;;;;;;5065750;28;20045;-75
2024/01/15 05:15:53;;;;;;;0.10;0.10;;;1.20;99.90;;;;;;5092588;28;20060;-75
2024/01/15 05:18:19;;;;;;;0.10;0.10;;;1.20;99.90;;;;;;5064544;28;20033;-75
2024/01/15 05:20:44;;;;;;;1.15;1.05;;;1.10;99.90;;;;;;5060386;28;20041;-75
2024/01/15 05:23:10;;;;;;;0.10;0.10;;;1.10;99.90;;;;;;5092179;28;20051;-76
2024/01/15 05:25:36;;;;;;;0.57;0.57;;;1.10;99.90;;;;;;5063373;28;20047;-75
2024/01/15 05:28:02;;;;;;;0.38;0.30;;;1.00;99.90;;;;;;5059589;28;20419;-75
2024/01/15 05:30:27;;;;;;;0.10;0.10;;;1.10;99.90;;;;;;5063099;28;20556;-75
2024/01/15 05:32:53;;;;;;;0.10;0.10;;;1.10;99.90;;;;;;5059052;28;20380;-74
2024/01/15 05:35:19;;;;;;;0.30;0.30;;;1.10;99.90;;;;;;5090278;28;20044;-75
2024/01/15 05:37:45;;;;;;;0.10;0.10;;;1.20;99.90;;;;;;5065347;28;20068;-71
2024/01/15 05:40:12;;;;;;;0.22;0.13;;;1.20;99.90;;;;;;5065847;28;20047;-71
2024/01/15 05:42:39;;;;;;;1.55;0.20;;;1.30;99.90;;;;;;5089937;28;20048;-74
2024/01/15 05:45:05;;;;;;;0.10;0.10;;;1.30;99.90;;;;;;5072874;28;20116;-70
2024/01/15 05:47:30;;;;;;;0.10;0.10;;;1.30;99.90;;;;;;5060525;28;20059;-71
2024/01/15 05:49:57;;;;;;;0.10;0.10;;;1.30;99.90;;;;;;5061306;28;20102;-73
2024/01/15 05:52:23;;;;;;;0.10;0.10;;;1.30;99.90;;;;;;5060207;28;20060;-71
2024/01/15 05:54:49;;;;;;;1.08;0.52;;;1.20;99.90;;;;;;5063129;28;20549;-69
2024/01/15 05:57:15;;;;;;;0.10;0.10;;;1.20;99.90;;;;;;5051534;28;20520;-72
2024/01/15 05:59:40;;;;;;;0.10;0.10;;;1.10;99.90;;;;;;5060828;28;20044;-71
2024/01/15 06:02:06;;;;;;;0.10;0.10;;;1.20;99.90;;;;;;5059322;28;20040;-71
2024/01/15 06:04:31;;;;;;;2.17;0.38;;;1.10;99.90;;;;;;5064269;28;20043;-73
2024/01/15 06:06:57;;;;;;;0.10;0.10;;;1.10;99.90;;;;;;5048529;28;20089;-73
2024/01/15 06:09:23;;;;;;;0.10;0.10;;;1.10;99.90;;;;;;5076754;28;20119;-73
2024/01/15 06:11:48;;;;;;;0.10;0.10;;;1.10;99.90;;;;;;5063777;28;20044;-72
2024/01/15 06:14:14;;;;;;;0.10;0.10;;;1.10;99.90;;;;;;5047408;28;20047;-72
2024/01/15 06:16:39;;;;;;;0.10;0.10;;;1.20;99.90;;;;;;5062154;28;20075;-73
2024/01/15 06:19:05;;;;;;;0.00;0.00;;;1.20;99.90;;;;;;5066705;28;20060;-72
2024/01/15 06:21:30;;;;;;;0.10;0.10;;;1.20;99.90;;;;;;5066484;28;20471;-71
2024/01/15 06:23:56;;;;;;;0.20;0.20;;;1.30;99.90;;;;;;5062404;28;20464;-69
2024/01/15 06:26:22;;;;;;;0.35;0.35;;;1.20;99.90;;;;;;5066985;28;20068;-68
2024/01/15 06:28:48;;;;;;;9.63;0.50;;;1.20;99.90;;;;;;5096783;28;20097;-70
2024/01/15 06:31:14;;;;;;;0.10;0.10;;;1.30;99.90;;;;;;5066621;28;20067;-72
2024/01/15 06:33:40;;;;;;;0.10;0.10;;;1.30;99.90;;;;;;5066297;28;20037;-74
2024/01/15 06:36:06;;;;;;;0.10;0.10;;;1.20;99.90;;;;;;5094220;28;20481;-75
2024/01/15 06:38:32;;;;;;;0.10;0.10;;;1.10;99.90;;;;;;5083476;28;20041;-74
2024/01/15 06:40:57;;;;;;;0.10;0.10;;;1.10;99.90;;;;;;5064110;28;20038;-70
2024/01/15 06:43:23;;;;;;;0.10;0.10;;;1.00;99.90;;;;;;5089694;28;20499;-73
2024/01/15 06:45:48;;;;;;;0.10;0.10;;;1.00;99.90;;;;;;5071951;28;20055;-72
2024/01/15 06:48:16;;;;;;;0.10;0.10;;;1.00;99.90;;;;;;5066462;28;20560;-70
2024/01/15 06:50:44;;;;;;;0.10;0.10;;;1.00;99.90;;;;;;5067568;28;20075;-74
2024/01/15 06:53:10;;;;;;;0.30;0.30;;;1.00;99.90;;;;;;5063359;28;20109;-70
2024/01/15 06:55:36;;;;;;;7.22;1.17;;;1.00;99.90;;;;;;5069306;28;20036;-70
2024/01/15 06:58:01;;;;;;;0.10;0.10;;;1.10;99.90;;;;;;5065591;28;20490;-73
2024/01/15 07:00:27;;;;;;;0.25;0.25;;;1.00;99.90;;;;;;5072192;28;20028;-72
2024/01/15 07:02:53;;;;;;;0.32;0.32;;;1.00;99.90;;;;;;5063133;28;20067;-70
2024/01/15 07:05:20;;;;;;;0.10;0.10;;;1.00;99.90;;;;;;5064210;28;20143;-70
2024/01/15 07:07:46;;;;;;;0.10;0.10;;;1.00;99.90;;;;;;5063290;28;20077;-70
2024/01/15 07:10:11;;;;;;;0.10;0.10;;;1.00;99.90;;;;;;5067328;28;20517;-71
2024/01/15 07:12:37;;;;;;;0.52;0.52;;;1.10;99.90;;;;;;5065681;28;20059;-72
2024/01/15 07:15:04;;;;;;;0.10;0.10;;;1.10;99.90;;;;;;5066918;28;20037;-69
2024/01/15 07:17:30;;;;;;;0.10;0.10;;;1.10;99.90;;;;;;5059752;28;20040;-70
2024/01/15 07:19:56;;;;;;;0.10;0.10;;;1.10;99.90;;;;;;5069094;28;20411;-69
2024/01/15 07:22:21;;;;;;;0.70;0.47;;;1.20;99.90;;;;;;5062612;28;20036;-73
2024/01/15 07:24:47;;;;;;;3.20;0.43;;;1.20;99.90;;;;;;5083146;28;20491;-71
2024/01/15 07:27:13;;;;;;;0.10;0.10;;;1.20;99.90;;;;;;5059509;28;20122;-71
2024/01/15 07:29:38;;;;;;;0.10;0.10;;;1.20;99.90;;;;;;5060377;28;20053;-72
2024/01/15 07:32:04;;;;;;;0.30;0.30;;;1.20;99.90;;;;;;5098543;28;20053;-73
2024/01/15 07:34:30;;;;;;;0.10;0.10;;;1.20;99.90;;;;;;5064161;28;20040;-72
2024/01/15 07:36:56;;;;;;;0.10;0.10;;;1.10;99.90;;;;;;5067137;28;20048;-71
2024/01/15 07:39:24;;;;;;;0.10;0.10;;;1.20;99.90;;;;;;5057822;28;20393;-70
2024/01/15 07:41:50;;;;;;;2.95;0.65;;;1.10;99.90;;;;;;5058045;28;20043;-72
2024/01/15 07:44:16;;;;;;;0.00;0.00;;;1.10;99.90;;;;;;5060505;28;20426;-71
2024/01/15 07:46:45;;;;;;;0.10;0.10;;;1.10;99.90;;;;;;5063584;28;20555;-71
2024/01/15 07:49:11;;;;;;;0.10;0.10;;;1.20;99.90;;;;;;5063073;28;20042;-70
2024/01/15 07:51:37;;;;;;;3.30;0.75;;;1.10;99.90;;;;;;5066178;28;20044;-70
2024/01/15 07:54:02;;;;;;;0.40;0.32;;;1.10;99.90;;;;;;5059007;28;20476;-71
2024/01/15 07:56:28;;;;;;;0.10;0.10;;;1.10;99.90;;;;;;5053620;28;20127;-69
2024/01/15 07:58:54;;;;;;;0.20;0.20;;;1.10;99.90;;;;;;5058481;28;20123;-70
2024/01/15 08:01:19;;;;;;;0.10;0.10;;;1.10;99.90;;;;;;5091160;28;20036;-71
2024/01/15 08:03:45;;;;;;;0.10;0.10;;;1.10;99.90;;;;;;5088465;28;20053;-71
2024/01/15 08:06:10;;;;;;;0.55;0.40;;;1.00;99.90;;;;;;5066888;28;20083;-71
2024/01/15 08:08:37;;;;;;;1.85;0.90;;;1.10;99.90;;;;;;5063294;28;20080;-69
2024/01/15 08:11:02;;;;;;;3.50;1.05;;;1.10;99.90;;;;;;5067187;28;20055;-70
2024/01/15 08:13:28;;;;;;;0.10;0.10;;;1.10;99.90;;;;;;5065969;28;20049;-70
2024/01/15 08:15:53;;;;;;;0.43;0.15;;;1.10;99.90;;;;;;5074558;28;20475;-68
2024/01/15 08:18:21;;;;;;;1.08;0.57;;;1.20;99.90;;;;;;5057749;28;20442;-70
2024/01/15 08:20:47;;;;;;;0.10;0.10;;;1.10;99.90;;;;;;5066181;28;20036;-70
2024/01/15 08:23:12;;;;;;;0.10;0.10;;;1.10;99.90;;;;;;5062680;28;21112;-70
2024/01/15 08:25:38;;;;;;;0.10;0.10;;;1.10;99.90;;;;;;5058923;28;20079;-69
2024/01/15 08:28:04;;;;;;;0.28;0.28;;;1.10;99.90;;;;;;5063057;28;20036;-69
2024/01/15 08:30:29;;;;;;;0.20;0.20;;;1.10;99.90;;;;;;5065465;28;20040;-70
2024/01/15 08:32:55;;;;;;;0.10;0.10;;;1.20;99.90;;;;;;5058269;28;20048;-71
2024/01/15 08:35:22;;;;;;;0.20;0.20;;;1.40;99.90;;;;;;5046807;28;20467;-69
2024/01/15 08:37:52;;;;;;;0.20;0.20;;;1.50;99.90;;;;;;5063431;28;20044;-70
2024/01/15 08:40:17;;;;;;;0.80;0.55;;;1.60;99.90;;;;;;5069618;28;20043;-70
2024/01/15 08:42:43;;;;;;;0.20;0.20;;;1.60;99.90;;;;;;5065015;28;20424;-69
2024/01/15 08:45:09;;;;;;;0.10;0.10;;;1.60;99.90;;;;;;5063732;28;20036;-69
2024/01/15 08:47:35;;;;;;;0.10;0.10;;;1.70;99.90;;;;;;5061446;28;20047;-71
2024/01/15 08:50:01;;;;;;;0.10;0.10;;;1.70;99.90;;;;;;5071553;28;20118;-72
2024/01/15 08:52:28;;;;;;;0.10;0.10;;;1.70;99.90;;;;;;5066260;28;20162;-70
2024/01/15 08:54:55;;;;;;;0.20;0.20;;;1.60;99.90;;;;;;5089821;28;20123;-69
2024/01/15 08:57:22;;;;;;;0.20;0.20;;;1.60;99.90;;;;;;5061077;28;20076;-72
2024/01/15 08:59:47;;;;;;;0.10;0.10;;;1.50;99.90;;;;;;5090284;28;20102;-74
2024/01/15 09:02:13;;;;;;;0.57;0.17;;;1.40;99.90;;;;;;5068919;28;20048;-71
2024/01/15 09:04:38;;;;;;;0.10;0.10;;;1.30;99.90;;;;;;5068005;28;20101;-69
2024/01/15 09:07:04;;;;;;;0.38;0.38;;;1.40;99.90;;;;;;5060665;28;20048;-70
2024/01/15 09:09:30;;;;;;;0.05;0.05;;;1.40;99.90;;;;;;5065031;28;20047;-70
2024/01/15 09:11:55;;;;;;;0.10;0.10;;;1.50;99.90;;;;;;5051825;28;20180;-71
2024/01/15 09:14:22;;;;;;;0.10;0.10;;;1.50;99.90;;;;;;5036080;28;20028;-71
2024/01/15 09:16:47;;;;;;;0.10;0.10;;;1.60;99.90;;;;;;5062178;28;20041;-70
2024/01/15 09:19:13;;;;;;;0.10;0.10;;;1.50;99.90;;;;;;5057144;28;20037;-70
2024/01/15 09:21:39;;;;;;;0.20;0.20;;;1.50;99.90;;;;;;5089235;28;20059;-69
2024/01/15 09:24:05;;;;;;;0.20;0.20;;;1.50;99.90;;;;;;5044756;28;20400;-70
2024/01/15 09:26:31;;;;;;;0.10;0.10;;;1.60;99.90;;;;;;5065044;28;20036;-70
2024/01/15 09:28:57;;;;;;;0.10;0.10;;;1.70;99.90;;;;;;5057706;28;20040;-69
2024/01/15 09:31:23;;;;;;;0.65;0.52;;;1.80;99.90;;;;;;5063536;28;20055;-69
2024/01/15 09:33:52;;;;;;;0.10;0.10;;;1.90;99.90;;;;;;5061320;28;20037;-70
2024/01/15 09:36:18;;;;;;;0.05;0.05;;;2.10;99.90;;;;;;5060273;28;20045;-70
2024/01/15 09:38:43;;;;;;;0.20;0.20;;;2.10;99.90;;;;;;5064088;28;20370;-69
2024/01/15 09:41:09;;;;;;;0.65;0.65;;;2.10;99.90;;;;;;5046732;28;20049;-71
2024/01/15 09:43:37;;;;;;;0.10;0.10;;;2.00;99.90;;;;;;5059490;28;20464;-71
2024/01/15 09:46:03;;;;;;;4.57;0.45;;;2.00;99.90;;;;;;5056722;28;20051;-70
2024/01/15 09:48:29;;;;;;;4.75;0.65;;;2.00;99.90;;;;;;5062660;28;20055;-71
2024/01/15 09:50:58;;;;;;;0.10;0.10;;;1.90;99.90;;;;;;5084610;28;20048;-73
2024/01/15 09:53:25;;;;;;;0.10;0.10;;;1.80;99.90;;;;;;5048404;28;20045;-70
2024/01/15 09:55:52;;;;;;;0.10;0.10;;;1.70;99.90;;;;;;5068497;28;20117;-76
2024/01/15 09:58:18;;;;;;;0.10;0.10;;;1.60;99.90;;;;;;5065518;28;20041;-72
2024/01/15 10:00:44;;;;;;;0.10;0.10;;;1.50;99.90;;;;;;5092072;28;20045;-74
2024/01/15 10:03:11;;;;;;;0.10;0.10;;;1.50;99.90;;;;;;5066346;28;20457;-74
2024/01/15 10:05:37;;;;;;;0.10;0.10;;;1.60;99.90;;;;;;5069062;28;20048;-74
2024/01/15 10:08:05;;;;;;;0.10;0.10;;;1.60;99.90;;;;;;5062200;28;20041;-72
2024/01/15 10:10:31;;;;;;;0.10;0.10;;;1.70;99.90;;;;;;5096684;28;20115;-79
2024/01/15 10:12:58;;;;;;;0.10;0.10;;;1.80;99.90;;;;;;5094961;28;20052;-76
2024/01/15 10:15:26;;;;;;;0.20;0.20;;;1.90;99.90;;;;;;5062663;28;20047;-74
2024/01/15 10:17:52;;;;;;;0.10;0.10;;;1.90;99.90;;;;;;5064976;28;20426;-75
2024/01/15 10:20:17;;;;;;;9.57;0.47;;;1.70;99.90;;;;;;5064018;28;20036;-75
2024/01/15 10:22:48;;;;;;;0.43;0.20;;;1.70;99.90;;;;;;5064381;28;20055;-76
2024/01/15 10:25:14;;;;;;;0.25;0.25;;;1.80;99.90;;;;;;5085858;28;20055;-75
2024/01/15 10:27:43;;;;;;;0.10;0.10;;;1.90;99.90;;;;;;5067345;28;20047;-77
2024/01/15 10:30:10;;;;;;;0.15;0.15;;;2.10;99.90;;;;;;5062015;28;20486;-74
2024/01/15 10:32:36;;;;;;;0.10;0.10;;;2.10;99.90;;;;;;5067472;28;20399;-74
2024/01/15 10:35:02;;;;;;;0.10;0.10;;;2.10;99.90;;;;;;5064418;28;20036;-76
2024/01/15 10:37:27;;;;;;;0.10;0.10;;;2.10;99.90;;;;;;5064997;28;20040;-72
2024/01/15 10:39:53;;;;;;;0.10;0.10;;;2.30;99.90;;;;;;5073169;28;20032;-72
2024/01/15 10:42:19;;;;;;;0.35;0.35;;;2.50;99.90;;;;;;5071699;28;20256;-74
2024/01/15 10:44:47;;;;;;;0.15;0.15;;;2.60;99.90;;;;;;5065149;28;20046;-72
2024/01/15 10:47:13;;;;;;;0.10;0.10;;;2.60;99.90;;;;;;5064256;28;20048;-72
2024/01/15 10:49:39;;;;;;;0.10;0.10;;;2.70;99.90;;;;;;5060906;28;20036;-71
2024/01/15 10:52:05;;;;;;;0.10;0.10;;;2.80;99.90;;;;;;5065413;28;20046;-73
2024/01/15 10:54:32;;;;;;;0.10;0.10;;;2.90;99.90;;;;;;5063803;28;20502;-74
2024/01/15 10:56:57;;;;;;;0.08;0.08;;;2.90;99.90;;;;;;5064499;28;20040;-72
2024/01/15 10:59:23;;;;;;;0.00;0.00;;;2.90;99.90;;;;;;5062007;28;20127;-75
2024/01/15 11:01:53;;;;;;;0.17;0.17;;;2.70;99.90;;;;;;5065948;28;20037;-74
2024/01/15 11:04:19;;;;;;;0.20;0.20;;;2.50;99.90;;;;;;5088673;28;20060;-76
2024/01/15 11:06:49;;;;;;;0.20;0.20;;;2.20;99.90;;;;;;5062218;28;20032;-72
2024/01/15 11:09:15;;;;;;;0.10;0.10;;;1.90;99.90;;;;;;5072476;28;20408;-78
2024/01/15 11:11:46;;;;;;;0.10;0.10;;;1.80;99.90;;;;;;5069299;28;20047;-69
2024/01/15 11:14:38;;;;;;;0.10;0.10;;;1.60;99.90;;;;;;5062034;28;20041;-73
2024/01/15 11:17:05;;;;;;;0.22;0.20;;;1.60;99.90;;;;;;5054994;28;20052;-75
2024/01/15 11:19:44;;;;;;;0.28;0.28;;;1.50;99.90;;;;;;5060840;28;20614;-80
2024/01/15 11:22:31;;;;;;;0.60;0.28;;;1.50;99.90;;;;;;5077543;28;20032;-75
2024/01/15 11:25:01;;;;;;;0.10;0.10;;;1.60;99.90;;;;;;5062738;28;20051;-78
2024/01/15 11:27:47;;;;;;;0.10;0.10;;;1.60;99.90;;;;;;5066732;28;20036;-76
2024/01/15 11:30:14;;;;;;;0.10;0.10;;;1.60;99.90;;;;;;5059635;28;20134;-74
2024/01/15 11:32:42;;;;;;;0.30;0.30;;;1.60;99.90;;;;;;5058863;28;20045;-72
2024/01/15 11:35:13;;;;;;;0.10;0.10;;;1.70;99.90;;;;;;5086438;28;20040;-75
2024/01/15 11:37:51;;;;;;;0.20;0.20;;;1.70;99.90;;;;;;5059383;28;20044;-73
2024/01/15 11:40:22;;;;;;;0.10;0.10;;;1.80;99.90;;;;;;5062800;28;20547;-75
2024/01/15 11:42:49;;;;;;;0.10;0.10;;;1.80;99.90;;;;;;5070076;28;20040;-77
2024/01/15 11:45:19;;;;;;;0.10;0.10;;;1.90;99.90;;;;;;5062422;28;20402;-74
2024/01/15 11:48:03;;;;;;;0.10;0.10;;;2.00;99.90;;;;;;5054408;28;20052;-72
2024/01/15 11:50:33;;;;;;;0.10;0.10;;;1.90;99.90;;;;;;5061244;28;20032;-72
2024/01/15 11:53:03;;;;;;;0.10;0.10;;;1.90;99.90;;;;;;5062317;28;20068;-78
2024/01/15 11:55:39;;;;;;;0.10;0.10;;;1.90;99.90;;;;;;5063811;28;20437;-76
2024/01/15 11:58:11;;;;;;;0.10;0.10;;;1.90;99.90;;;;;;5052293;28;20044;-76
2024/01/15 12:00:47;;;;;;;0.10;0.10;;;2.00;99.90;;;;;;5067144;28;20072;-72
2024/01/15 12:03:13;;;;;;;0.10;0.10;;;2.20;99.90;;;;;;5081021;28;20340;-75
2024/01/15 12:05:39;;;;;;;0.30;0.30;;;2.20;99.90;;;;;;5066929;28;20489;-75
2024/01/15 12:08:11;;;;;;;0.10;0.10;;;2.40;99.90;;;;;;5068744;28;20047;-73
2024/01/15 12:10:41;;;;;;;0.43;0.43;;;2.50;99.90;;;;;;5063719;28;20047;-71
2024/01/15 12:13:10;;;;;;;0.20;0.20;;;2.50;99.90;;;;;;5068671;28;20044;-68
2024/01/15 12:15:38;;;;;;;0.10;0.10;;;2.60;99.90;;;;;;5054595;28;20030;-66
2024/01/15 12:18:04;;;;;;;0.10;0.10;;;2.50;99.90;;;;;;5092956;28;20119;-66
2024/01/15 12:20:30;;;;;;;4.38;0.50;;;2.30;99.90;;;;;;5061885;28;20107;-73
2024/01/15 12:22:57;;;;;;;0.10;0.10;;;2.10;99.90;;;;;;5066252;28;20380;-68
2024/01/15 12:25:27;;;;;;;0.13;0.13;;;1.80;99.90;;;;;;5062291;28;20126;-67
2024/01/15 12:27:53;;;;;;;2.42;0.52;;;1.60;99.90;;;;;;5065872;28;20044;-68
2024/01/15 12:30:19;;;;;;;0.10;0.10;;;1.40;99.90;;;;;;5058243;28;20032;-69
2024/01/15 12:32:46;;;;;;;0.10;0.10;;;1.30;99.90;;;;;;5069986;28;20053;-70
2024/01/15 12:35:12;;;;;;;0.10;0.10;;;1.30;99.90;;;;;;5057726;28;20045;-70
2024/01/15 12:37:41;;;;;;;0.10;0.10;;;1.20;99.90;;;;;;5069791;28;20041;-68
2024/01/15 12:40:07;;;;;;;0.10;0.10;;;1.20;99.90;;;;;;5064534;28;20403;-69
2024/01/15 12:42:33;;;;;;;0.10;0.10;;;1.20;99.90;;;;;;5071283;28;20047;-69
2024/01/15 12:45:00;;;;;;;0.10;0.10;;;1.20;99.90;;;;;;5062268;28;20045;-68
2024/01/15 12:47:26;;;;;;;0.10;0.10;;;1.20;99.90;;;;;;5067794;28;20119;-69
2024/01/15 12:49:55;;;;;;;0.10;0.10;;;1.30;99.90;;;;;;5062350;28;20127;-73
2024/01/15 12:52:21;;;;;;;0.35;0.32;;;1.30;99.90;;;;;;5068807;28;20075;-74
2024/01/15 12:54:51;;;;;;;1.30;0.70;;;1.40;99.90;;;;;;5061033;28;20092;-72